Crescent City, FL

10:04 AM EST en Marzo 01, 2015 (GMT -0500)
South end of Crescent Lake | Change Station
CLOSE
Current Station
Estación meteorológica personal
Location: Crescent City, FL
Altura: 16 ft
Estaciones meteorológicas cercanas

Alt 16 ft 29.39 °N, 81.47 °W | Updated 4 minutes ago

Nublado
Nublado
58.9 ° F
Sensación térmica 58.9 ° F
N
6.0
Viento Variable Viento desde NNO
Gusts 6.0 mph

Hoy
Alta -- | Baja -- ° F
--% Posibilidad de precipitaciones
Ayer
Alta -- | Baja -- ° F
Precip. -- pul
6:51 AM 6:25 PM
Gibosa creciente, 85% visible
Presión 30.41 pul
Visibilidad 2.5 Millas
Nubes Nubes dispersas 2000 ft
Nublado 3800 ft
Punto de rocío 58 ° F
Humedad 96%
Precipitaciones 0.00 pul
Espesor de la nieve No disponible.
UV 2 de una escala de 12
Polen 8.70 de una escala de 12
Calidad del aire No disponible.
Flu Activity No disponible.
METAR KOMN 011450Z 00000KT 2 1/2SM BR SCT020 OVC038 16/15 A3041

More Conditions Fewer Conditions

Presión 30.41 pul
Visibilidad 2.5 Millas
Nubes Nubes dispersas 2000 ft
Nublado 3800 ft
Punto de rocío 58 ° F
Humedad 96%
Precipitaciones 0.00 pul
Espesor de la nieve No disponible.
UV 2 de una escala de 12
Polen 8.70 de una escala de 12
Calidad del aire No disponible.
Flu Activity No disponible.
METAR KOMN 011450Z 00000KT 2 1/2SM BR SCT020 OVC038 16/15 A3041

More Conditions Fewer Conditions

10-Day Weather Forecast

Almanac

Astronomía

Mar. 01, 2015 Salida Puesta
Hora real
Crepúsculo civil
Crepúsculo náutico
Crepúsculo astronómico
Luna
Horas de luz
Horas de luz
Tomorrow will be .
, % of the Moon is Illuminated

Extremos de hoy

Máximos del estado Bajos del estado

Community

WunderPhotos

Upload Photos

1,801,406 ¡fotos cargadas!

WunderBlogs® & News

Nearby

Calidad del aire

  Calidad del aire Índice AQ Contaminante
Not available.

Grosos de nieve

Estación Profundido Altura

Actividad de terremotos

Ciudad Distance Mag. Tiempo y dato
Magnitud mínima muestra es 2,5.

Temperaturas de aguas costeras

Lugar Temperatura

Estaciones meteorológicas cercanas